createdAt,value
2019-01-03T00:00:59.089Z,0.70
2019-01-03T00:06:17.017Z,0.70
2019-01-03T00:11:36.047Z,0.70
2019-01-03T00:17:13.439Z,0.70
2019-01-03T00:22:36.633Z,0.80
2019-01-03T00:27:49.981Z,0.80
2019-01-03T00:33:07.383Z,0.80
2019-01-03T00:38:41.064Z,0.80
2019-01-03T00:44:05.999Z,0.80
2019-01-03T00:49:18.151Z,0.80
2019-01-03T00:54:35.475Z,0.80
2019-01-03T00:59:56.442Z,0.70
2019-01-03T01:05:19.434Z,0.70
2019-01-03T01:10:38.122Z,0.70
2019-01-03T01:15:59.838Z,0.70
2019-01-03T01:21:17.297Z,0.60
2019-01-03T01:26:34.933Z,0.60
2019-01-03T01:31:45.894Z,0.70
2019-01-03T01:37:04.587Z,0.60
2019-01-03T01:42:22.207Z,0.70
2019-01-03T01:47:49.947Z,0.70
2019-01-03T01:53:10.718Z,0.80
2019-01-03T01:58:25.498Z,0.70
2019-01-03T02:04:02.595Z,0.80
2019-01-03T02:09:21.266Z,0.70
2019-01-03T02:14:38.866Z,0.70
2019-01-03T02:19:57.994Z,0.80
2019-01-03T02:25:32.254Z,0.80
2019-01-03T02:30:58.687Z,0.80
2019-01-03T02:36:19.082Z,0.80
2019-01-03T02:41:46.976Z,0.80
2019-01-03T02:46:59.000Z,0.80
2019-01-03T02:52:35.776Z,0.80
2019-01-03T02:58:02.647Z,0.90
2019-01-03T03:03:21.743Z,0.80
2019-01-03T03:08:32.619Z,0.90
2019-01-03T03:13:54.064Z,0.90
2019-01-03T03:19:02.379Z,0.90
2019-01-03T03:24:19.943Z,0.90
2019-01-03T03:29:31.326Z,0.90
2019-01-03T03:34:48.676Z,0.90
2019-01-03T03:40:05.752Z,0.90
2019-01-03T03:45:43.133Z,1.00
2019-01-03T03:51:00.729Z,1.00
2019-01-03T03:56:37.847Z,1.00
2019-01-03T04:01:56.510Z,1.00
2019-01-03T04:07:11.516Z,1.00
2019-01-03T04:12:28.333Z,1.00
2019-01-03T04:17:45.266Z,1.00
2019-01-03T04:23:07.435Z,1.00
2019-01-03T04:28:39.609Z,0.90
2019-01-03T04:33:56.843Z,0.90
2019-01-03T04:39:31.074Z,1.00
2019-01-03T04:44:48.763Z,0.90
2019-01-03T04:50:06.380Z,0.90
2019-01-03T04:55:24.294Z,0.90
2019-01-03T05:00:54.459Z,1.00
2019-01-03T05:06:12.000Z,1.00
2019-01-03T05:11:29.516Z,1.10
2019-01-03T05:16:50.982Z,1.10
2019-01-03T05:22:12.650Z,1.10
2019-01-03T05:27:34.435Z,1.20
2019-01-03T05:32:56.175Z,1.20
2019-01-03T05:38:13.595Z,1.30
2019-01-03T05:43:24.735Z,1.30
2019-01-03T05:48:42.417Z,1.30
2019-01-03T05:54:00.661Z,1.30
2019-01-03T05:59:18.801Z,1.30
2019-01-03T06:04:36.347Z,1.30
2019-01-03T06:09:57.572Z,1.30
2019-01-03T06:15:20.655Z,1.30
2019-01-03T06:20:38.441Z,1.30
2019-01-03T06:25:56.115Z,1.40
2019-01-03T06:31:09.751Z,1.40
2019-01-03T06:36:18.439Z,1.40
2019-01-03T06:41:36.149Z,1.40
2019-01-03T06:47:04.988Z,1.40
2019-01-03T06:52:32.154Z,1.30
2019-01-03T06:57:49.687Z,1.30
2019-01-03T07:03:11.333Z,1.30
2019-01-03T07:08:28.570Z,1.40
2019-01-03T07:13:45.937Z,1.40
2019-01-03T07:19:13.827Z,1.40
2019-01-03T07:24:31.247Z,1.40
2019-01-03T07:29:53.052Z,1.50
2019-01-03T07:35:10.743Z,1.50
2019-01-03T07:40:32.601Z,1.60
2019-01-03T07:45:50.203Z,1.50
2019-01-03T07:51:07.605Z,1.60
2019-01-03T07:56:25.945Z,1.50
2019-01-03T08:01:53.983Z,1.60
2019-01-03T08:07:11.556Z,1.60
2019-01-03T08:12:30.263Z,1.70
2019-01-03T08:18:01.012Z,1.70
2019-01-03T08:23:32.248Z,1.70
2019-01-03T08:28:50.611Z,1.80
2019-01-03T08:34:15.622Z,1.70
2019-01-03T08:39:46.354Z,1.80
2019-01-03T08:44:53.822Z,2.00
2019-01-03T08:50:07.650Z,1.90
2019-01-03T08:55:26.527Z,2.00
2019-01-03T09:00:57.898Z,2.10
2019-01-03T09:06:25.919Z,2.20
2019-01-03T09:11:42.706Z,2.20
2019-01-03T09:17:00.547Z,2.20
2019-01-03T09:22:15.643Z,2.10
2019-01-03T09:27:37.142Z,2.10
2019-01-03T09:33:02.376Z,2.20
2019-01-03T09:38:21.914Z,2.30
2019-01-03T09:43:49.896Z,2.30
2019-01-03T09:48:49.822Z,2.40
2019-01-03T09:53:49.911Z,2.50
2019-01-03T09:58:49.783Z,2.50
2019-01-03T10:03:53.494Z,2.50
2019-01-03T10:08:53.250Z,2.40
2019-01-03T10:13:52.821Z,2.50
2019-01-03T10:18:52.459Z,2.60
2019-01-03T10:23:51.998Z,2.60
2019-01-03T10:28:51.565Z,2.70
2019-01-03T10:33:51.139Z,2.90
2019-01-03T10:38:51.757Z,2.90
2019-01-03T10:43:51.394Z,3.00
2019-01-03T10:48:50.944Z,3.00
2019-01-03T10:53:50.660Z,3.00
2019-01-03T10:58:50.206Z,2.90
2019-01-03T11:03:49.824Z,2.80
2019-01-03T11:08:49.369Z,2.90
2019-01-03T11:13:48.955Z,3.00
2019-01-03T11:18:49.351Z,3.10
2019-01-03T11:23:48.903Z,3.10
2019-01-03T11:28:48.497Z,3.10
2019-01-03T11:33:48.102Z,3.10
2019-01-03T11:38:47.638Z,3.10
2019-01-03T11:43:47.179Z,3.20
2019-01-03T11:48:46.727Z,3.30
2019-01-03T11:53:46.295Z,3.30
2019-01-03T11:58:45.841Z,3.20
2019-01-03T12:03:45.382Z,3.40
2019-01-03T12:08:44.922Z,3.40
2019-01-03T12:13:44.499Z,3.40
2019-01-03T12:18:44.069Z,3.40
2019-01-03T12:23:43.617Z,3.40
2019-01-03T12:28:43.157Z,3.50
2019-01-03T12:33:42.695Z,3.50
2019-01-03T12:38:42.238Z,3.40
2019-01-03T12:43:41.879Z,3.50
2019-01-03T12:48:45.484Z,3.70
2019-01-03T12:53:42.691Z,3.70
2019-01-03T12:58:42.222Z,3.60
2019-01-03T13:03:41.762Z,3.70
2019-01-03T13:08:41.307Z,3.60
2019-01-03T13:13:40.855Z,3.70
2019-01-03T13:18:40.416Z,3.70
2019-01-03T13:23:40.018Z,3.70
2019-01-03T13:28:39.616Z,3.80
2019-01-03T13:33:39.235Z,3.80
2019-01-03T13:38:38.775Z,3.90
2019-01-03T13:43:38.322Z,3.90
2019-01-03T13:48:37.874Z,3.80
2019-01-03T13:53:37.410Z,3.70
2019-01-03T13:58:36.951Z,3.50
2019-01-03T14:03:36.507Z,3.40
2019-01-03T14:08:37.007Z,3.30
2019-01-03T14:13:36.555Z,3.30
2019-01-03T14:18:36.098Z,3.30
2019-01-03T14:23:35.834Z,3.30
2019-01-03T14:28:35.383Z,3.30
2019-01-03T14:33:34.930Z,3.20
2019-01-03T14:38:34.475Z,3.20
2019-01-03T14:43:34.031Z,3.20
2019-01-03T14:48:33.566Z,3.20
2019-01-03T14:53:33.222Z,3.10
2019-01-03T14:58:32.778Z,3.00
2019-01-03T15:03:32.324Z,3.00
2019-01-03T15:08:31.871Z,2.90
2019-01-03T15:13:31.424Z,3.00
2019-01-03T15:18:30.963Z,2.90
2019-01-03T15:23:30.518Z,2.90
2019-01-03T15:28:30.067Z,2.80
2019-01-03T15:33:29.896Z,2.80
2019-01-03T15:38:29.467Z,2.80
2019-01-03T15:43:29.018Z,2.70
2019-01-03T15:48:28.554Z,2.70
2019-01-03T15:53:28.089Z,2.70
2019-01-03T15:58:27.666Z,2.60
2019-01-03T16:03:27.202Z,2.60
2019-01-03T16:08:26.743Z,2.50
2019-01-03T16:13:26.295Z,2.50
2019-01-03T16:18:25.848Z,2.50
2019-01-03T16:23:25.378Z,2.50
2019-01-03T16:28:24.952Z,2.40
2019-01-03T16:33:24.486Z,2.50
2019-01-03T16:38:24.030Z,2.50
2019-01-03T16:43:23.577Z,2.40
2019-01-03T16:48:23.122Z,2.30
2019-01-03T16:53:22.676Z,2.30
2019-01-03T16:58:22.220Z,2.30
2019-01-03T17:03:21.787Z,2.30
2019-01-03T17:08:21.332Z,2.40
2019-01-03T17:13:20.862Z,2.30
2019-01-03T17:18:20.402Z,2.40
2019-01-03T17:23:19.963Z,2.50
2019-01-03T17:28:19.518Z,2.50
2019-01-03T17:33:19.072Z,2.50
2019-01-03T17:38:18.616Z,2.40
2019-01-03T17:43:18.186Z,2.30
2019-01-03T17:48:17.752Z,2.30
2019-01-03T17:53:17.295Z,2.40
2019-01-03T17:58:16.837Z,2.40
2019-01-03T18:03:16.526Z,2.40
2019-01-03T18:08:16.082Z,2.30
2019-01-03T18:13:15.620Z,2.30
2019-01-03T18:18:16.135Z,2.20
2019-01-03T18:23:15.669Z,2.20
2019-01-03T18:28:15.226Z,2.20
2019-01-03T18:33:14.793Z,2.20
2019-01-03T18:38:14.375Z,2.20
2019-01-03T18:43:14.127Z,2.30
2019-01-03T18:48:13.658Z,2.30
2019-01-03T18:53:13.205Z,2.20
2019-01-03T18:58:12.768Z,2.10
2019-01-03T19:03:12.298Z,2.00
2019-01-03T19:08:11.842Z,2.00
2019-01-03T19:13:11.394Z,2.00
2019-01-03T19:18:10.944Z,1.90
2019-01-03T19:23:12.007Z,1.90
2019-01-03T19:28:11.767Z,1.80
2019-01-03T19:33:11.539Z,1.80
2019-01-03T19:38:11.113Z,1.70
2019-01-03T19:43:10.690Z,1.70
2019-01-03T19:48:10.366Z,1.70
2019-01-03T19:53:09.962Z,1.60
2019-01-03T19:58:09.599Z,1.70
2019-01-03T20:03:09.186Z,1.60
2019-01-03T20:08:09.314Z,1.60
2019-01-03T20:13:08.868Z,1.50
2019-01-03T20:18:08.406Z,1.60
2019-01-03T20:23:07.975Z,1.50
2019-01-03T20:28:07.664Z,1.40
2019-01-03T20:33:07.266Z,1.60
2019-01-03T20:38:06.994Z,1.90
2019-01-03T20:43:06.734Z,2.00
2019-01-03T20:48:06.609Z,1.70
2019-01-03T20:53:06.570Z,1.50
2019-01-03T20:58:06.136Z,1.40
2019-01-03T21:03:05.783Z,1.40
2019-01-03T21:08:05.344Z,1.30
2019-01-03T21:13:04.895Z,1.20
2019-01-03T21:18:04.469Z,1.20
2019-01-03T21:23:04.093Z,1.10
2019-01-03T21:28:03.665Z,1.20
2019-01-03T21:33:03.856Z,1.10
2019-01-03T21:38:03.718Z,1.10
2019-01-03T21:43:03.278Z,1.10
2019-01-03T21:48:02.837Z,1.10
2019-01-03T21:53:02.388Z,1.00
2019-01-03T21:58:01.954Z,1.00
2019-01-03T22:03:01.502Z,1.00
2019-01-03T22:08:02.232Z,1.00
2019-01-03T22:13:01.990Z,0.90
2019-01-03T22:18:01.545Z,0.80
2019-01-03T22:23:01.182Z,0.80
2019-01-03T22:28:00.746Z,0.70
2019-01-03T22:33:00.327Z,0.70
2019-01-03T22:38:00.234Z,0.60
2019-01-03T22:43:01.943Z,0.50
2019-01-03T22:48:03.503Z,0.60
2019-01-03T22:53:03.059Z,0.60
2019-01-03T22:58:02.655Z,0.60
2019-01-03T23:03:02.485Z,0.70
2019-01-03T23:08:08.144Z,0.80
2019-01-03T23:13:07.884Z,0.80
2019-01-03T23:18:07.950Z,0.80
2019-01-03T23:23:07.489Z,0.90
2019-01-03T23:28:07.055Z,1.00
2019-01-03T23:33:06.595Z,1.00
2019-01-03T23:38:06.135Z,1.10
2019-01-03T23:43:05.703Z,1.20
2019-01-03T23:48:05.318Z,1.20
2019-01-03T23:53:05.659Z,1.30
2019-01-03T23:58:05.347Z,1.30
